Time;durP1;ratioP1;P1;durP2;ratioP2;P2;SDS_P1;SDS_P2;PMS_P1;PMS_P2;Temp;Humidity;BMP_temperature;BMP_pressure;BME280_temperature;BME280_humidity;BME280_pressure;Samples;Min_cycle;Max_cycle;Signal;HPM_P1;HPM_P2
2023/04/07 00:01:05;;;;;;;30.93;17.47;;;;;;;;;;6229930;28;20376;-82
2023/04/07 00:04:05;;;;;;;35.00;19.50;;;;;;;;;;6242464;28;20479;-82
2023/04/07 00:07:06;;;;;;;32.40;19.58;;;;;;;;;;6235846;28;20033;-81
2023/04/07 00:10:06;;;;;;;34.13;21.13;;;;;;;;;;6239258;28;20037;-82
2023/04/07 00:13:06;;;;;;;31.97;19.53;;;;;;;;;;6240792;28;20519;-79
2023/04/07 00:16:07;;;;;;;33.03;19.40;;;;;;;;;;6236571;28;20545;-80
2023/04/07 00:19:07;;;;;;;21.30;14.23;;;;;;;;;;6237494;28;20021;-82
2023/04/07 00:22:07;;;;;;;28.07;16.20;;;;;;;;;;6230850;28;20519;-80
2023/04/07 00:25:07;;;;;;;35.00;20.60;;;;;;;;;;6238622;28;20025;-79
2023/04/07 00:28:08;;;;;;;38.17;20.97;;;;;;;;;;6235439;28;20025;-81
2023/04/07 00:31:08;;;;;;;34.40;19.27;;;;;;;;;;6240367;28;20487;-81
2023/04/07 00:34:08;;;;;;;32.30;19.10;;;;;;;;;;6238325;28;20029;-80
2023/04/07 00:37:08;;;;;;;35.73;18.80;;;;;;;;;;6237254;28;20075;-81
2023/04/07 00:40:09;;;;;;;31.55;18.30;;;;;;;;;;6241720;28;20040;-81
2023/04/07 00:43:10;;;;;;;32.73;19.77;;;;;;;;;;6240647;28;20028;-81
2023/04/07 00:46:10;;;;;;;29.80;18.27;;;;;;;;;;6235883;28;20407;-80
2023/04/07 00:49:12;;;;;;;30.90;18.83;;;;;;;;;;6235230;28;20053;-80
2023/04/07 00:52:13;;;;;;;32.85;19.40;;;;;;;;;;6233107;28;20131;-80
2023/04/07 00:55:13;;;;;;;34.43;19.17;;;;;;;;;;6234390;28;20456;-80
2023/04/07 00:58:13;;;;;;;37.53;18.57;;;;;;;;;;6238943;28;20041;-80
2023/04/07 01:01:42;;;;;;;34.60;19.77;;;;;;;;;;6236981;28;20029;-80
2023/04/07 01:05:00;;;;;;;36.28;20.23;;;;;;;;;;6226266;28;20038;-80
2023/04/07 01:08:19;;;;;;;42.25;21.73;;;;;;;;;;6237525;28;20083;-81
2023/04/07 01:11:24;;;;;;;33.08;18.80;;;;;;;;;;6232582;28;20033;-81
2023/04/07 01:14:28;;;;;;;37.10;21.50;;;;;;;;;;6235897;28;20532;-81
2023/04/07 01:17:29;;;;;;;37.72;20.23;;;;;;;;;;6237974;28;20079;-81
2023/04/07 01:20:31;;;;;;;34.93;19.80;;;;;;;;;;6242063;28;21170;-81
2023/04/07 01:23:38;;;;;;;38.70;19.00;;;;;;;;;;6241420;28;20029;-82
2023/04/07 01:26:38;;;;;;;34.05;17.13;;;;;;;;;;6246696;28;20037;-82
2023/04/07 01:29:46;;;;;;;36.87;18.87;;;;;;;;;;6243486;28;20033;-82
2023/04/07 01:32:50;;;;;;;38.75;19.40;;;;;;;;;;6255550;28;20076;-83
2023/04/07 01:35:52;;;;;;;36.90;18.70;;;;;;;;;;6245295;28;20106;-82
2023/04/07 01:38:54;;;;;;;29.93;16.57;;;;;;;;;;6243059;28;20037;-83
2023/04/07 01:41:55;;;;;;;39.95;19.85;;;;;;;;;;6241899;28;20307;-83
2023/04/07 01:44:56;;;;;;;33.28;18.90;;;;;;;;;;6237045;28;20029;-81
2023/04/07 01:47:57;;;;;;;40.70;21.27;;;;;;;;;;6241274;28;20025;-81
2023/04/07 01:50:58;;;;;;;41.57;21.63;;;;;;;;;;6245119;28;20603;-81
2023/04/07 01:54:00;;;;;;;37.17;20.57;;;;;;;;;;6238781;28;20124;-81
2023/04/07 01:57:01;;;;;;;32.63;19.30;;;;;;;;;;6235265;28;20053;-81
2023/04/07 02:00:02;;;;;;;36.72;19.63;;;;;;;;;;6245828;28;20013;-81
2023/04/07 02:03:22;;;;;;;33.67;18.80;;;;;;;;;;6242491;28;20025;-81
2023/04/07 02:06:26;;;;;;;35.40;19.65;;;;;;;;;;6239403;28;20025;-80
2023/04/07 02:09:28;;;;;;;38.45;21.02;;;;;;;;;;6240960;28;20034;-80
2023/04/07 02:12:29;;;;;;;33.38;19.17;;;;;;;;;;6242101;28;20476;-81
2023/04/07 02:15:30;;;;;;;32.80;17.53;;;;;;;;;;6238467;28;20036;-80
2023/04/07 02:18:31;;;;;;;39.50;20.33;;;;;;;;;;6236238;28;20112;-80
2023/04/07 02:21:33;;;;;;;38.27;19.57;;;;;;;;;;6234533;28;20029;-81
2023/04/07 02:24:33;;;;;;;34.78;18.08;;;;;;;;;;6241459;28;20108;-80
2023/04/07 02:27:33;;;;;;;39.67;20.48;;;;;;;;;;6239837;28;20030;-80
2023/04/07 02:30:34;;;;;;;42.27;20.13;;;;;;;;;;6235541;28;20033;-80
2023/04/07 02:33:34;;;;;;;37.77;20.87;;;;;;;;;;6250344;28;20025;-80
2023/04/07 02:36:35;;;;;;;34.03;19.30;;;;;;;;;;6239875;28;20026;-80
2023/04/07 02:39:35;;;;;;;33.33;17.70;;;;;;;;;;6236883;28;20105;-80
2023/04/07 02:42:35;;;;;;;39.17;20.40;;;;;;;;;;6240963;28;20490;-79
2023/04/07 02:45:36;;;;;;;36.60;19.20;;;;;;;;;;6243027;28;20034;-79
2023/04/07 02:48:36;;;;;;;40.60;18.43;;;;;;;;;;6241061;28;20490;-79
2023/04/07 02:51:36;;;;;;;40.20;19.77;;;;;;;;;;6238522;28;20034;-79
2023/04/07 02:54:37;;;;;;;31.93;18.33;;;;;;;;;;6237810;28;20026;-79
2023/04/07 02:57:37;;;;;;;34.83;18.97;;;;;;;;;;6239762;28;20419;-79
2023/04/07 03:00:37;;;;;;;37.15;20.30;;;;;;;;;;6237565;28;20022;-79
2023/04/07 03:03:38;;;;;;;34.45;17.08;;;;;;;;;;6236422;28;20026;-78
2023/04/07 03:06:38;;;;;;;38.13;20.57;;;;;;;;;;6240319;28;20392;-79
2023/04/07 03:09:38;;;;;;;32.07;18.13;;;;;;;;;;6240511;28;20040;-78
2023/04/07 03:12:38;;;;;;;45.35;23.98;;;;;;;;;;6240596;28;20144;-79
2023/04/07 03:15:38;;;;;;;44.13;23.15;;;;;;;;;;6238019;28;20562;-79
2023/04/07 03:18:39;;;;;;;40.70;20.47;;;;;;;;;;6234768;28;20040;-79
2023/04/07 03:21:39;;;;;;;49.30;24.25;;;;;;;;;;6235302;28;20492;-79
2023/04/07 03:24:40;;;;;;;46.13;23.33;;;;;;;;;;6235384;28;20017;-78
2023/04/07 03:27:40;;;;;;;47.43;22.67;;;;;;;;;;6238995;28;20105;-79
2023/04/07 03:30:40;;;;;;;46.33;22.55;;;;;;;;;;6236034;28;20370;-78
2023/04/07 03:33:40;;;;;;;46.43;21.33;;;;;;;;;;6234648;28;20034;-79
2023/04/07 03:36:40;;;;;;;46.50;21.63;;;;;;;;;;6238851;28;20064;-79
2023/04/07 03:39:41;;;;;;;42.70;23.03;;;;;;;;;;6236432;28;20028;-79
2023/04/07 03:42:42;;;;;;;42.47;19.87;;;;;;;;;;6247133;28;20456;-78
2023/04/07 03:45:42;;;;;;;43.27;21.20;;;;;;;;;;6237937;28;20091;-79
2023/04/07 03:48:42;;;;;;;40.87;21.53;;;;;;;;;;6240165;28;20013;-79
2023/04/07 03:51:42;;;;;;;38.70;20.60;;;;;;;;;;6239908;28;20033;-79
2023/04/07 03:54:42;;;;;;;35.23;19.13;;;;;;;;;;6235628;28;20029;-78
2023/04/07 03:57:43;;;;;;;36.08;19.70;;;;;;;;;;6237243;28;20047;-79
2023/04/07 04:00:43;;;;;;;32.07;16.67;;;;;;;;;;6235657;28;20064;-78
2023/04/07 04:03:43;;;;;;;33.77;18.77;;;;;;;;;;6237830;28;20025;-78
2023/04/07 04:06:43;;;;;;;39.07;18.73;;;;;;;;;;6240784;28;20025;-78
2023/04/07 04:09:44;;;;;;;40.30;17.83;;;;;;;;;;6237952;28;20021;-78
2023/04/07 04:12:48;;;;;;;43.83;21.47;;;;;;;;;;6236740;28;20025;-78
2023/04/07 04:15:48;;;;;;;40.25;19.48;;;;;;;;;;6251641;28;20022;-78
2023/04/07 04:18:48;;;;;;;32.57;17.20;;;;;;;;;;6254919;28;20436;-77
2023/04/07 04:21:48;;;;;;;41.43;19.40;;;;;;;;;;6232917;28;20464;-77
2023/04/07 04:24:49;;;;;;;37.13;20.90;;;;;;;;;;6231684;28;20098;-77
2023/04/07 04:27:49;;;;;;;42.07;21.13;;;;;;;;;;6237549;28;20034;-77
2023/04/07 04:30:50;;;;;;;34.50;17.60;;;;;;;;;;6235693;28;20032;-77
2023/04/07 04:33:51;;;;;;;36.05;19.25;;;;;;;;;;6236310;28;20018;-76
2023/04/07 04:36:51;;;;;;;38.00;19.50;;;;;;;;;;6236480;28;20041;-77
2023/04/07 04:39:51;;;;;;;38.47;20.00;;;;;;;;;;6239647;28;20139;-77
2023/04/07 04:42:51;;;;;;;41.70;21.77;;;;;;;;;;6237582;28;20104;-77
2023/04/07 04:45:52;;;;;;;35.40;18.90;;;;;;;;;;6236982;28;20018;-77
2023/04/07 04:48:52;;;;;;;42.97;21.30;;;;;;;;;;6237371;28;20032;-78
2023/04/07 04:51:53;;;;;;;44.20;21.57;;;;;;;;;;6239161;28;20044;-78
2023/04/07 04:54:53;;;;;;;38.57;18.30;;;;;;;;;;6239825;28;20041;-78
2023/04/07 04:57:53;;;;;;;37.10;18.23;;;;;;;;;;6235233;28;20527;-77
2023/04/07 05:00:58;;;;;;;41.03;19.23;;;;;;;;;;6234161;28;20013;-77
2023/04/07 05:03:58;;;;;;;39.83;19.67;;;;;;;;;;6238227;28;20045;-76
2023/04/07 05:06:58;;;;;;;36.88;16.83;;;;;;;;;;6231200;28;20021;-77
2023/04/07 05:09:59;;;;;;;33.03;18.17;;;;;;;;;;6241561;28;20025;-77
2023/04/07 05:12:59;;;;;;;37.77;19.47;;;;;;;;;;6233807;28;20024;-76
2023/04/07 05:16:00;;;;;;;44.65;23.77;;;;;;;;;;6237767;28;20018;-76
2023/04/07 05:19:00;;;;;;;39.80;21.77;;;;;;;;;;6235470;28;20160;-76
2023/04/07 05:22:00;;;;;;;41.07;21.47;;;;;;;;;;6233153;28;20029;-76
2023/04/07 05:25:01;;;;;;;44.67;25.23;;;;;;;;;;6242917;28;20060;-76
2023/04/07 05:28:02;;;;;;;37.90;22.97;;;;;;;;;;6231841;28;20520;-76
2023/04/07 05:31:02;;;;;;;33.43;19.13;;;;;;;;;;6233554;28;20028;-76
2023/04/07 05:34:02;;;;;;;39.57;18.10;;;;;;;;;;6223286;28;20491;-75
2023/04/07 05:37:03;;;;;;;36.27;18.37;;;;;;;;;;6229022;28;20030;-75
2023/04/07 05:40:03;;;;;;;37.57;17.33;;;;;;;;;;6231967;28;20013;-76
2023/04/07 05:43:04;;;;;;;40.50;18.43;;;;;;;;;;6231815;28;20026;-75
2023/04/07 05:46:04;;;;;;;38.90;21.77;;;;;;;;;;6238449;28;20025;-75
2023/04/07 05:49:04;;;;;;;39.42;20.17;;;;;;;;;;6237630;28;20037;-75
2023/04/07 05:52:04;;;;;;;36.87;17.43;;;;;;;;;;6241856;28;20100;-76
2023/04/07 05:55:05;;;;;;;42.27;21.73;;;;;;;;;;6231671;28;20113;-76
2023/04/07 05:58:05;;;;;;;67.73;29.07;;;;;;;;;;6235001;28;20056;-76
2023/04/07 06:01:05;;;;;;;73.03;33.70;;;;;;;;;;6238516;28;20101;-76
2023/04/07 06:04:06;;;;;;;49.63;25.50;;;;;;;;;;6228071;28;20396;-76
2023/04/07 06:07:06;;;;;;;46.30;22.47;;;;;;;;;;6239396;28;20104;-76
2023/04/07 06:10:07;;;;;;;52.73;24.73;;;;;;;;;;6244027;28;20030;-77
2023/04/07 06:13:08;;;;;;;47.17;26.03;;;;;;;;;;6237544;28;20029;-77
2023/04/07 06:16:08;;;;;;;51.88;23.25;;;;;;;;;;6238700;28;20748;-79
2023/04/07 06:19:08;;;;;;;57.00;33.83;;;;;;;;;;6232281;28;20033;-79
2023/04/07 06:22:09;;;;;;;44.23;25.23;;;;;;;;;;6242167;28;20107;-78
2023/04/07 06:25:09;;;;;;;42.87;21.50;;;;;;;;;;6234326;28;20113;-77
2023/04/07 06:28:09;;;;;;;42.30;21.53;;;;;;;;;;6237154;28;20086;-78
2023/04/07 06:31:09;;;;;;;49.87;24.47;;;;;;;;;;6238939;28;20052;-78
2023/04/07 06:34:10;;;;;;;46.17;25.83;;;;;;;;;;6237784;28;20083;-78
2023/04/07 06:37:10;;;;;;;50.77;27.27;;;;;;;;;;6236506;28;20031;-79
2023/04/07 06:40:10;;;;;;;44.73;24.27;;;;;;;;;;6240097;28;20025;-78
2023/04/07 06:43:10;;;;;;;37.57;21.17;;;;;;;;;;6237090;28;20021;-79
2023/04/07 06:46:11;;;;;;;41.93;22.83;;;;;;;;;;6236011;28;20404;-77
2023/04/07 06:49:11;;;;;;;38.00;19.83;;;;;;;;;;6238124;28;20476;-80
2023/04/07 06:52:11;;;;;;;44.77;21.03;;;;;;;;;;6241708;28;20021;-80
2023/04/07 06:55:11;;;;;;;33.80;18.23;;;;;;;;;;6235111;28;20029;-79
2023/04/07 06:58:11;;;;;;;40.33;20.60;;;;;;;;;;6234620;28;20132;-80
2023/04/07 07:01:12;;;;;;;38.47;20.73;;;;;;;;;;6242718;28;20030;-79
2023/04/07 07:04:12;;;;;;;43.65;23.08;;;;;;;;;;6233081;28;20017;-79
2023/04/07 07:07:13;;;;;;;38.60;20.03;;;;;;;;;;6240205;28;20576;-79
2023/04/07 07:10:13;;;;;;;34.10;17.80;;;;;;;;;;6235824;28;20059;-81
2023/04/07 07:13:14;;;;;;;37.30;18.83;;;;;;;;;;6236776;28;20017;-80
2023/04/07 07:16:14;;;;;;;30.70;18.03;;;;;;;;;;6237878;28;20468;-82
2023/04/07 07:19:15;;;;;;;121.20;61.93;;;;;;;;;;6244253;28;20032;-81
2023/04/07 07:22:15;;;;;;;53.87;28.87;;;;;;;;;;6239425;28;20040;-81
2023/04/07 07:25:15;;;;;;;41.67;20.90;;;;;;;;;;6233942;28;20539;-83
2023/04/07 07:28:15;;;;;;;32.40;19.17;;;;;;;;;;6237007;28;20021;-82
2023/04/07 07:31:16;;;;;;;44.17;23.30;;;;;;;;;;6235660;28;20025;-82
2023/04/07 07:34:16;;;;;;;80.00;30.73;;;;;;;;;;6240412;28;20029;-84
2023/04/07 07:37:16;;;;;;;40.60;18.73;;;;;;;;;;6233383;28;20021;-84
2023/04/07 07:40:17;;;;;;;36.47;17.67;;;;;;;;;;6237897;28;20024;-84
2023/04/07 07:43:17;;;;;;;33.33;17.83;;;;;;;;;;6239554;28;20021;-85
2023/04/07 07:46:17;;;;;;;38.67;20.20;;;;;;;;;;6239761;28;20025;-86
2023/04/07 07:49:18;;;;;;;46.07;21.93;;;;;;;;;;6234836;28;20055;-87
2023/04/07 07:52:19;;;;;;;49.80;27.05;;;;;;;;;;6239674;28;20025;-86
2023/04/07 07:55:19;;;;;;;43.88;20.75;;;;;;;;;;6253540;28;20471;-88
2023/04/07 07:58:20;;;;;;;40.77;21.23;;;;;;;;;;6237247;28;20079;-89
2023/04/07 08:01:20;;;;;;;41.23;21.07;;;;;;;;;;6245123;28;20702;-90
2023/04/07 08:39:04;;;;;;;631.05;81.88;;;;;;;;;;6214074;28;20496;-85
2023/04/07 08:42:07;;;;;;;364.63;58.07;;;;;;;;;;6207685;28;20022;-87
2023/04/07 08:45:08;;;;;;;675.28;97.05;;;;;;;;;;6216501;28;20477;-88
2023/04/07 08:48:16;;;;;;;270.42;102.65;;;;;;;;;;6213291;28;20144;-86
2023/04/07 08:51:20;;;;;;;522.50;128.68;;;;;;;;;;6215579;28;20026;-88
2023/04/07 08:54:21;;;;;;;551.30;128.90;;;;;;;;;;6214949;28;20030;-86
2023/04/07 08:57:21;;;;;;;282.75;101.45;;;;;;;;;;6214843;28;20034;-86
2023/04/07 09:00:22;;;;;;;68.77;30.93;;;;;;;;;;6215248;28;20101;-87
2023/04/07 09:03:23;;;;;;;75.07;35.90;;;;;;;;;;6221463;28;20029;-88
2023/04/07 09:06:23;;;;;;;1999.90;293.63;;;;;;;;;;6222704;28;20037;-84
2023/04/07 09:09:23;;;;;;;1999.90;281.03;;;;;;;;;;6225188;28;20022;-84
2023/04/07 09:12:24;;;;;;;277.00;48.33;;;;;;;;;;6225213;28;20029;-89
2023/04/07 09:15:25;;;;;;;73.77;34.97;;;;;;;;;;6232915;28;20078;-87
2023/04/07 09:18:26;;;;;;;81.17;36.67;;;;;;;;;;6230065;28;20467;-90
2023/04/07 09:21:45;;;;;;;83.75;39.60;;;;;;;;;;6233533;28;20223;-90
2023/04/07 09:24:47;;;;;;;69.32;32.78;;;;;;;;;;6231513;28;20065;-89
2023/04/07 09:28:13;;;;;;;73.57;31.75;;;;;;;;;;6225686;28;20026;-88
2023/04/07 09:31:13;;;;;;;98.03;34.35;;;;;;;;;;6212984;28;20282;-88
2023/04/07 09:34:24;;;;;;;79.23;32.37;;;;;;;;;;6223776;28;20025;-86
2023/04/07 09:37:24;;;;;;;100.13;44.03;;;;;;;;;;6213452;28;20061;-85
2023/04/07 09:40:26;;;;;;;77.60;34.83;;;;;;;;;;6229226;28;20018;-85
2023/04/07 09:43:26;;;;;;;77.95;34.88;;;;;;;;;;6228360;28;20022;-86
2023/04/07 09:46:26;;;;;;;65.18;31.08;;;;;;;;;;6219186;28;20029;-84
2023/04/07 09:49:27;;;;;;;60.57;29.13;;;;;;;;;;6218453;28;20022;-84
2023/04/07 09:52:46;;;;;;;67.93;31.30;;;;;;;;;;6222983;28;20109;-85
2023/04/07 09:55:46;;;;;;;70.82;31.63;;;;;;;;;;6224168;28;20026;-81
2023/04/07 09:58:50;;;;;;;71.50;34.00;;;;;;;;;;6214372;28;20109;-84
2023/04/07 10:01:50;;;;;;;77.50;34.88;;;;;;;;;;6214427;28;20049;-83
2023/04/07 10:04:50;;;;;;;81.97;42.58;;;;;;;;;;6217283;28;20036;-84
2023/04/07 10:07:51;;;;;;;86.33;40.27;;;;;;;;;;6216657;28;20076;-84
2023/04/07 10:10:52;;;;;;;81.43;38.10;;;;;;;;;;6215685;28;20519;-84
2023/04/07 10:13:52;;;;;;;71.27;36.20;;;;;;;;;;6219229;28;20314;-85
2023/04/07 10:16:53;;;;;;;67.40;33.40;;;;;;;;;;6224313;28;20026;-86
2023/04/07 10:19:56;;;;;;;72.87;34.00;;;;;;;;;;6217215;28;20539;-86
2023/04/07 10:23:01;;;;;;;71.43;31.05;;;;;;;;;;6217917;28;20559;-85
2023/04/07 10:26:02;;;;;;;138.07;46.85;;;;;;;;;;6220114;28;20030;-85
2023/04/07 10:29:10;;;;;;;990.97;123.50;;;;;;;;;;6220647;28;20029;-84
2023/04/07 10:32:10;;;;;;;459.15;72.47;;;;;;;;;;6210603;28;20019;-83
2023/04/07 10:35:11;;;;;;;1592.03;98.30;;;;;;;;;;6216569;28;20034;-86
2023/04/07 10:38:15;;;;;;;1798.13;138.73;;;;;;;;;;6214643;28;20136;-86
2023/04/07 10:41:45;;;;;;;1999.90;292.30;;;;;;;;;;6221580;28;20028;-88
2023/04/07 10:44:47;;;;;;;81.53;38.25;;;;;;;;;;6220928;28;20057;-88
2023/04/07 10:47:47;;;;;;;;;;;;;;;;;;6247301;28;20045;-84
2023/04/07 10:51:20;;;;;;;93.95;42.03;;;;;;;;;;6240180;28;19921;-87
2023/04/07 10:54:21;;;;;;;89.20;41.00;;;;;;;;;;6214320;28;20032;-87
2023/04/07 10:57:23;;;;;;;101.78;41.40;;;;;;;;;;6242406;28;20034;-89
2023/04/07 11:00:23;;;;;;;108.07;50.05;;;;;;;;;;6247440;28;20097;-88
2023/04/07 11:03:24;;;;;;;105.50;45.37;;;;;;;;;;6230141;28;20595;-92
2023/04/07 11:06:25;;;;;;;99.70;42.87;;;;;;;;;;6243829;28;20037;-89
2023/04/07 11:09:26;;;;;;;;;;;;;;;;;;6249446;28;20446;-91
2023/04/07 11:12:26;;;;;;;76.13;34.72;;;;;;;;;;6237497;28;19909;-89
2023/04/07 11:15:27;;;;;;;72.28;34.33;;;;;;;;;;6231950;28;20022;-90
2023/04/07 11:18:27;;;;;;;73.90;33.27;;;;;;;;;;6225092;28;20442;-88
2023/04/07 11:21:27;;;;;;;66.40;30.70;;;;;;;;;;6223876;28;20025;-88
2023/04/07 11:24:31;;;;;;;63.90;29.97;;;;;;;;;;6223946;28;20082;-89
2023/04/07 11:27:31;;;;;;;67.60;32.47;;;;;;;;;;6224043;28;20018;-87
2023/04/07 11:30:31;;;;;;;69.10;33.00;;;;;;;;;;6217590;28;20514;-89
2023/04/07 11:33:34;;;;;;;78.90;37.40;;;;;;;;;;6223366;28;20037;-87
2023/04/07 11:36:37;;;;;;;101.13;45.05;;;;;;;;;;6225054;28;20532;-88
2023/04/07 11:39:37;;;;;;;95.03;48.55;;;;;;;;;;6225135;28;20515;-90
2023/04/07 11:42:38;;;;;;;99.93;44.20;;;;;;;;;;6225536;28;20033;-89
2023/04/07 11:45:39;;;;;;;75.43;35.53;;;;;;;;;;6219508;28;20049;-90
2023/04/07 11:48:40;;;;;;;77.00;36.67;;;;;;;;;;6236713;28;20090;-91
2023/04/07 11:51:41;;;;;;;94.23;40.00;;;;;;;;;;6238689;28;20022;-90
2023/04/07 11:54:52;;;;;;;1999.90;317.02;;;;;;;;;;6230743;28;20489;-88
2023/04/07 11:57:52;;;;;;;1030.57;111.95;;;;;;;;;;6214985;28;20026;-86
2023/04/07 12:00:56;;;;;;;1833.00;148.87;;;;;;;;;;6220699;28;20030;-87
2023/04/07 12:04:00;;;;;;;1999.90;601.63;;;;;;;;;;6217737;28;20025;-89
2023/04/07 12:07:08;;;;;;;1508.72;172.10;;;;;;;;;;6212293;28;20145;-91
2023/04/07 12:10:18;;;;;;;1999.90;306.05;;;;;;;;;;6222878;28;20022;-89
2023/04/07 12:13:19;;;;;;;1999.90;278.67;;;;;;;;;;6226491;28;20024;-85
2023/04/07 12:16:19;;;;;;;257.80;55.70;;;;;;;;;;6232578;28;20014;-88
2023/04/07 12:19:20;;;;;;;470.90;76.63;;;;;;;;;;6244606;28;20048;-84
2023/04/07 12:22:21;;;;;;;278.17;50.08;;;;;;;;;;6238626;28;20029;-83
2023/04/07 12:25:21;;;;;;;251.67;50.67;;;;;;;;;;6221696;28;20104;-84
2023/04/07 12:28:21;;;;;;;263.27;52.47;;;;;;;;;;6220746;28;20396;-87
2023/04/07 12:31:21;;;;;;;131.90;28.77;;;;;;;;;;6210763;28;20069;-86
2023/04/07 12:34:22;;;;;;;85.60;31.73;;;;;;;;;;6217581;28;20045;-87
2023/04/07 12:37:22;;;;;;;98.90;32.20;;;;;;;;;;6209767;28;20038;-86
2023/04/07 12:40:23;;;;;;;160.33;40.70;;;;;;;;;;6221581;28;20044;-86
2023/04/07 12:43:23;;;;;;;141.07;39.70;;;;;;;;;;6218018;28;20120;-87
2023/04/07 12:46:23;;;;;;;153.80;43.20;;;;;;;;;;6206072;28;20030;-88
2023/04/07 12:49:23;;;;;;;277.70;54.20;;;;;;;;;;6212509;28;20038;-88
2023/04/07 12:52:23;;;;;;;143.10;44.30;;;;;;;;;;6208140;28;20052;-88
2023/04/07 12:55:24;;;;;;;127.43;37.43;;;;;;;;;;6231952;28;20050;-84
2023/04/07 12:58:25;;;;;;;65.80;27.70;;;;;;;;;;6234956;28;20514;-88
2023/04/07 13:01:25;;;;;;;166.68;40.63;;;;;;;;;;6234016;28;20080;-88
2023/04/07 13:04:29;;;;;;;106.73;32.30;;;;;;;;;;6226406;28;20117;-88
2023/04/07 13:07:29;;;;;;;808.88;100.10;;;;;;;;;;6223453;28;20025;-86
2023/04/07 13:10:29;;;;;;;823.43;111.40;;;;;;;;;;6235583;28;20476;-87
2023/04/07 13:13:30;;;;;;;404.70;56.53;;;;;;;;;;6217755;28;20504;-86
2023/04/07 13:16:30;;;;;;;116.93;30.13;;;;;;;;;;6214151;28;20022;-87
2023/04/07 13:19:31;;;;;;;114.30;31.43;;;;;;;;;;6222243;28;20112;-89
2023/04/07 13:22:31;;;;;;;149.65;38.55;;;;;;;;;;6213493;28;20473;-85
2023/04/07 13:25:31;;;;;;;153.33;37.87;;;;;;;;;;6210164;28;20046;-87
2023/04/07 13:28:32;;;;;;;136.90;38.80;;;;;;;;;;6221103;28;20399;-86
2023/04/07 13:31:32;;;;;;;123.78;36.95;;;;;;;;;;6219951;28;20029;-85
2023/04/07 13:34:33;;;;;;;200.13;60.83;;;;;;;;;;6220914;28;20080;-84
2023/04/07 13:37:35;;;;;;;137.53;50.73;;;;;;;;;;6220876;28;20045;-84
2023/04/07 13:40:35;;;;;;;140.63;45.47;;;;;;;;;;6219329;28;20488;-84
2023/04/07 13:43:35;;;;;;;153.18;43.67;;;;;;;;;;6226431;28;20105;-82
2023/04/07 13:46:36;;;;;;;188.17;43.03;;;;;;;;;;6220796;28;20400;-82
2023/04/07 13:49:37;;;;;;;126.00;32.77;;;;;;;;;;6220765;28;20056;-83
2023/04/07 13:52:37;;;;;;;98.73;32.23;;;;;;;;;;6220864;28;20527;-81
2023/04/07 13:55:37;;;;;;;107.67;38.93;;;;;;;;;;6213214;28;20117;-79
2023/04/07 13:58:38;;;;;;;137.30;49.97;;;;;;;;;;6216657;28;20473;-83
2023/04/07 14:01:38;;;;;;;140.57;51.15;;;;;;;;;;6218502;28;20030;-82
2023/04/07 14:04:38;;;;;;;187.40;63.87;;;;;;;;;;6216887;28;20093;-83
2023/04/07 14:07:38;;;;;;;184.60;68.90;;;;;;;;;;6220706;28;20508;-86
2023/04/07 14:10:39;;;;;;;138.43;60.90;;;;;;;;;;6204297;28;20057;-85
2023/04/07 14:13:40;;;;;;;132.73;55.43;;;;;;;;;;6213344;28;20030;-86
2023/04/07 14:16:40;;;;;;;178.20;57.20;;;;;;;;;;6226600;28;20439;-85
2023/04/07 14:19:41;;;;;;;173.73;42.83;;;;;;;;;;6230968;28;20022;-87
2023/04/07 14:22:41;;;;;;;148.37;48.10;;;;;;;;;;6242322;28;20097;-87
2023/04/07 15:11:07;;;;;;;125.22;35.30;;;;;;;;;;6986660;23;20045;-85
2023/04/07 15:14:08;;;;;;;119.78;37.00;;;;;;;;;;6204918;28;20032;-83
2023/04/07 15:17:08;;;;;;;140.17;43.53;;;;;;;;;;6204595;28;20026;-88
2023/04/07 15:20:08;;;;;;;87.78;35.00;;;;;;;;;;6206547;28;20385;-86
2023/04/07 15:23:08;;;;;;;217.13;58.50;;;;;;;;;;6201815;28;20046;-82
2023/04/07 15:26:09;;;;;;;154.77;51.10;;;;;;;;;;6198800;28;20052;-85
2023/04/07 15:29:09;;;;;;;203.60;60.20;;;;;;;;;;6189947;28;20053;-86
2023/04/07 15:32:09;;;;;;;126.50;46.00;;;;;;;;;;6200782;28;20011;-85
2023/04/07 15:35:09;;;;;;;139.57;42.03;;;;;;;;;;6198879;28;20033;-85
2023/04/07 15:38:10;;;;;;;130.70;42.47;;;;;;;;;;6198306;28;20408;-85
2023/04/07 15:41:15;;;;;;;101.37;40.97;;;;;;;;;;6186470;28;20023;-85
2023/04/07 15:44:18;;;;;;;167.63;56.50;;;;;;;;;;6197672;28;20559;-86
2023/04/07 15:47:18;;;;;;;203.05;59.00;;;;;;;;;;6185853;28;20069;-85
2023/04/07 15:50:18;;;;;;;138.48;46.78;;;;;;;;;;6209299;28;20094;-84
2023/04/07 15:53:19;;;;;;;226.60;57.30;;;;;;;;;;6208077;28;20137;-81
2023/04/07 15:56:21;;;;;;;190.80;52.03;;;;;;;;;;6214297;28;20037;-88
2023/04/07 15:59:22;;;;;;;173.45;48.72;;;;;;;;;;6225706;28;20022;-80
2023/04/07 16:02:22;;;;;;;110.80;39.47;;;;;;;;;;6221794;28;20023;-82
2023/04/07 16:05:22;;;;;;;87.25;35.15;;;;;;;;;;6219646;28;20018;-86
2023/04/07 16:08:22;;;;;;;122.27;39.90;;;;;;;;;;6202282;28;20027;-89
2023/04/07 16:11:22;;;;;;;139.97;51.30;;;;;;;;;;6199424;28;20710;-84
2023/04/07 16:14:25;;;;;;;178.17;50.93;;;;;;;;;;6203702;28;20015;-87
2023/04/07 16:17:27;;;;;;;185.95;59.22;;;;;;;;;;6197962;28;20035;-87
2023/04/07 16:20:27;;;;;;;311.60;77.45;;;;;;;;;;6203506;28;20026;-84
2023/04/07 16:23:27;;;;;;;133.83;57.10;;;;;;;;;;6188683;28;20010;-84
2023/04/07 16:26:27;;;;;;;226.85;60.80;;;;;;;;;;6208073;28;20015;-85
2023/04/07 16:29:28;;;;;;;172.03;64.70;;;;;;;;;;6204638;28;20122;-88
2023/04/07 16:32:28;;;;;;;134.33;56.03;;;;;;;;;;6195072;28;20050;-87
2023/04/07 16:35:30;;;;;;;179.87;61.77;;;;;;;;;;6185851;28;20031;-88
2023/04/07 16:38:30;;;;;;;182.32;68.35;;;;;;;;;;6197753;28;20022;-86
2023/04/07 16:41:30;;;;;;;159.87;60.10;;;;;;;;;;6204489;28;20106;-89
2023/04/07 16:44:31;;;;;;;266.63;62.33;;;;;;;;;;6210968;28;20018;-88
2023/04/07 16:47:31;;;;;;;165.90;43.23;;;;;;;;;;6202371;28;20093;-89
2023/04/07 16:50:32;;;;;;;128.50;38.87;;;;;;;;;;6189283;28;20022;-91
2023/04/07 16:53:32;;;;;;;190.80;47.53;;;;;;;;;;6189627;28;20015;-87
2023/04/07 16:56:34;;;;;;;132.87;45.17;;;;;;;;;;6197265;28;20018;-90
2023/04/07 16:59:35;;;;;;;195.63;71.65;;;;;;;;;;6190421;28;20055;-92
2023/04/07 17:02:35;;;;;;;130.83;59.80;;;;;;;;;;6192771;28;20039;-92
2023/04/07 17:05:37;;;;;;;105.65;52.50;;;;;;;;;;6197965;28;20103;-91
2023/04/07 17:08:37;;;;;;;139.70;52.38;;;;;;;;;;6192195;28;20050;-87
2023/04/07 17:11:40;;;;;;;1322.90;593.83;;;;;;;;;;6204847;28;20039;-89
2023/04/07 17:14:40;;;;;;;471.80;192.80;;;;;;;;;;6205974;28;20027;-85
2023/04/07 17:17:41;;;;;;;153.47;44.87;;;;;;;;;;6205951;28;20102;-91
2023/04/07 17:20:41;;;;;;;139.82;43.83;;;;;;;;;;6197807;28;20034;-91
2023/04/07 17:23:41;;;;;;;104.57;46.17;;;;;;;;;;6185060;28;20027;-91
2023/04/07 17:26:42;;;;;;;287.07;67.63;;;;;;;;;;6191093;28;20026;-89
2023/04/07 17:29:42;;;;;;;116.43;40.67;;;;;;;;;;6189645;28;20026;-90
2023/04/07 17:32:42;;;;;;;128.27;44.27;;;;;;;;;;6191883;28;20019;-90
2023/04/07 17:35:46;;;;;;;123.40;43.40;;;;;;;;;;6183341;28;20006;-90
2023/04/07 17:38:46;;;;;;;152.52;49.05;;;;;;;;;;6186374;28;20036;-90
2023/04/07 17:41:46;;;;;;;186.27;72.13;;;;;;;;;;6174598;28;20030;-89
2023/04/07 17:44:49;;;;;;;215.13;89.60;;;;;;;;;;6178589;28;20035;-88
2023/04/07 17:47:50;;;;;;;155.40;78.38;;;;;;;;;;6176449;28;20026;-87
2023/04/07 17:50:50;;;;;;;230.35;76.38;;;;;;;;;;6148127;28;20471;-88
2023/04/07 17:53:52;;;;;;;189.63;63.33;;;;;;;;;;6172843;28;20014;-81
2023/04/07 17:56:52;;;;;;;149.23;56.33;;;;;;;;;;6178900;28;20027;-82
2023/04/07 17:59:53;;;;;;;226.57;81.97;;;;;;;;;;6173248;28;20033;-85
2023/04/07 18:02:53;;;;;;;229.80;75.83;;;;;;;;;;6173280;28;20973;-85
2023/04/07 18:05:53;;;;;;;267.37;88.07;;;;;;;;;;6177176;28;20102;-86
2023/04/07 18:08:54;;;;;;;285.63;132.07;;;;;;;;;;6176413;28;20421;-80
2023/04/07 18:11:55;;;;;;;375.10;130.90;;;;;;;;;;6173485;28;20045;-86
2023/04/07 18:14:55;;;;;;;291.47;94.00;;;;;;;;;;6174177;28;20027;-85
2023/04/07 18:17:55;;;;;;;274.33;108.10;;;;;;;;;;6161796;28;20054;-83
2023/04/07 18:20:55;;;;;;;220.83;106.67;;;;;;;;;;6171910;28;20065;-85
2023/04/07 18:23:56;;;;;;;196.17;93.97;;;;;;;;;;6167713;28;20022;-86
2023/04/07 18:26:56;;;;;;;184.50;77.83;;;;;;;;;;6180532;28;20389;-85
2023/04/07 18:29:56;;;;;;;311.83;101.07;;;;;;;;;;6181743;28;20029;-86
2023/04/07 18:32:56;;;;;;;217.95;92.53;;;;;;;;;;6172378;28;20053;-86
2023/04/07 18:35:57;;;;;;;216.02;75.95;;;;;;;;;;6179523;28;20027;-84
2023/04/07 18:38:58;;;;;;;173.43;62.83;;;;;;;;;;6184598;28;20129;-87
2023/04/07 18:41:58;;;;;;;163.27;54.57;;;;;;;;;;6162120;28;20089;-86
2023/04/07 18:44:58;;;;;;;108.60;43.17;;;;;;;;;;6182366;28;20037;-86
2023/04/07 18:47:58;;;;;;;113.27;47.57;;;;;;;;;;6185462;28;20034;-85